EDHL/LBC METAR and TAF weather

Enter ICAO airport designator
Station Type Date Time Source
EDHL METAR 2019/02/17 19:50 UTC NOAA

EDHL 171950Z 13003KT CAVOK 07/03 Q1020


Station Type Date Time Source
EDHL Decoded METAR 2019/02/17 19:50 UTC NOAA

Luebeck-Blankensee, Germany (EDHL) 53-49N 010-42E 15M
Feb 17, 2019 - 02:50 PM EST / 2019.02.17 1950 UTC
Wind: from the SE (130 degrees) at 3 MPH (3 KT):0
Visibility: greater than 7 mile(s):0
Temperature: 44 F (7 C)
Dew Point: 37 F (3 C)
Relative Humidity: 75%
Pressure (altimeter): 30.12 in. Hg (1020 hPa)
ob: EDHL 171950Z 13003KT CAVOK 07/03 Q1020
cycle: 20

Station Type Date Time Source
EDHL TAF 2010/02/22 14:20 UTC NOAA

METAR EDHL 221420Z 15004KT 110V180 9999 FEW039 SCT120 05/02 Q0990
RMK X


Example: see airport list